sensor_id;sensor_type;location;lat;lon;timestamp;P1;durP1;ratioP1;P2;durP2;ratioP2
45388;SDS011;31127;52.078;4.370;2024-01-30T00:01:41;18.52;;;12.60;;
45388;SDS011;31127;52.078;4.370;2024-01-30T00:06:37;19.08;;;12.50;;
45388;SDS011;31127;52.078;4.370;2024-01-30T00:11:32;21.45;;;12.70;;
45388;SDS011;31127;52.078;4.370;2024-01-30T00:16:27;15.13;;;11.55;;
45388;SDS011;31127;52.078;4.370;2024-01-30T00:21:23;17.35;;;11.30;;
45388;SDS011;31127;52.078;4.370;2024-01-30T00:26:18;15.80;;;11.27;;
45388;SDS011;31127;52.078;4.370;2024-01-30T00:31:14;19.38;;;11.32;;
45388;SDS011;31127;52.078;4.370;2024-01-30T00:36:10;14.95;;;9.93;;
45388;SDS011;31127;52.078;4.370;2024-01-30T00:41:06;15.90;;;9.88;;
45388;SDS011;31127;52.078;4.370;2024-01-30T00:46:01;15.95;;;9.57;;
45388;SDS011;31127;52.078;4.370;2024-01-30T00:50:57;16.55;;;10.02;;
45388;SDS011;31127;52.078;4.370;2024-01-30T00:55:52;12.43;;;8.97;;
45388;SDS011;31127;52.078;4.370;2024-01-30T01:01:08;14.15;;;9.73;;
45388;SDS011;31127;52.078;4.370;2024-01-30T01:06:06;16.23;;;9.70;;
45388;SDS011;31127;52.078;4.370;2024-01-30T01:11:02;13.75;;;9.77;;
45388;SDS011;31127;52.078;4.370;2024-01-30T01:15:58;15.02;;;9.98;;
45388;SDS011;31127;52.078;4.370;2024-01-30T01:20:54;15.88;;;9.77;;
45388;SDS011;31127;52.078;4.370;2024-01-30T01:25:50;17.80;;;11.18;;
45388;SDS011;31127;52.078;4.370;2024-01-30T01:30:46;18.23;;;9.90;;
45388;SDS011;31127;52.078;4.370;2024-01-30T01:36:04;14.20;;;9.80;;
45388;SDS011;31127;52.078;4.370;2024-01-30T01:41:00;15.82;;;10.52;;
45388;SDS011;31127;52.078;4.370;2024-01-30T01:46:16;13.73;;;9.43;;
45388;SDS011;31127;52.078;4.370;2024-01-30T01:51:12;14.98;;;9.45;;
45388;SDS011;31127;52.078;4.370;2024-01-30T01:56:08;17.35;;;9.77;;
45388;SDS011;31127;52.078;4.370;2024-01-30T02:01:04;17.90;;;9.88;;
45388;SDS011;31127;52.078;4.370;2024-01-30T02:06:00;19.20;;;10.73;;
45388;SDS011;31127;52.078;4.370;2024-01-30T02:11:04;22.52;;;9.32;;
45388;SDS011;31127;52.078;4.370;2024-01-30T02:16:00;16.08;;;9.38;;
45388;SDS011;31127;52.078;4.370;2024-01-30T02:20:56;14.85;;;9.70;;
45388;SDS011;31127;52.078;4.370;2024-01-30T02:25:53;15.57;;;9.63;;
45388;SDS011;31127;52.078;4.370;2024-01-30T02:30:49;12.32;;;9.13;;
45388;SDS011;31127;52.078;4.370;2024-01-30T02:35:44;12.95;;;8.90;;
45388;SDS011;31127;52.078;4.370;2024-01-30T02:40:40;16.05;;;10.00;;
45388;SDS011;31127;52.078;4.370;2024-01-30T02:45:35;12.25;;;9.05;;
45388;SDS011;31127;52.078;4.370;2024-01-30T02:50:31;15.90;;;10.05;;
45388;SDS011;31127;52.078;4.370;2024-01-30T02:55:27;16.42;;;9.80;;
45388;SDS011;31127;52.078;4.370;2024-01-30T03:00:23;13.40;;;9.10;;
45388;SDS011;31127;52.078;4.370;2024-01-30T03:05:38;13.90;;;9.52;;
45388;SDS011;31127;52.078;4.370;2024-01-30T03:10:34;14.05;;;9.32;;
45388;SDS011;31127;52.078;4.370;2024-01-30T03:15:29;17.13;;;10.82;;
45388;SDS011;31127;52.078;4.370;2024-01-30T03:20:25;15.75;;;9.73;;
45388;SDS011;31127;52.078;4.370;2024-01-30T03:25:20;20.25;;;11.95;;
45388;SDS011;31127;52.078;4.370;2024-01-30T03:30:15;14.13;;;9.53;;
45388;SDS011;31127;52.078;4.370;2024-01-30T03:35:11;16.50;;;10.33;;
45388;SDS011;31127;52.078;4.370;2024-01-30T03:40:06;14.23;;;9.18;;
45388;SDS011;31127;52.078;4.370;2024-01-30T03:45:22;14.98;;;7.63;;
45388;SDS011;31127;52.078;4.370;2024-01-30T03:50:38;14.50;;;10.10;;
45388;SDS011;31127;52.078;4.370;2024-01-30T03:55:33;14.63;;;9.38;;
45388;SDS011;31127;52.078;4.370;2024-01-30T04:00:30;13.80;;;8.95;;
45388;SDS011;31127;52.078;4.370;2024-01-30T04:05:25;16.20;;;9.68;;
45388;SDS011;31127;52.078;4.370;2024-01-30T04:10:21;15.50;;;9.85;;
45388;SDS011;31127;52.078;4.370;2024-01-30T04:15:17;22.45;;;9.70;;
45388;SDS011;31127;52.078;4.370;2024-01-30T04:20:14;13.63;;;9.60;;
45388;SDS011;31127;52.078;4.370;2024-01-30T04:25:10;13.90;;;9.73;;
45388;SDS011;31127;52.078;4.370;2024-01-30T04:30:06;15.95;;;8.93;;
45388;SDS011;31127;52.078;4.370;2024-01-30T04:35:16;15.73;;;9.23;;
45388;SDS011;31127;52.078;4.370;2024-01-30T04:40:13;19.88;;;9.15;;
45388;SDS011;31127;52.078;4.370;2024-01-30T04:45:09;16.20;;;10.25;;
45388;SDS011;31127;52.078;4.370;2024-01-30T04:50:06;18.13;;;9.30;;
45388;SDS011;31127;52.078;4.370;2024-01-30T04:55:01;12.88;;;8.05;;
45388;SDS011;31127;52.078;4.370;2024-01-30T04:59:57;16.38;;;9.25;;
45388;SDS011;31127;52.078;4.370;2024-01-30T05:04:52;18.80;;;9.50;;
45388;SDS011;31127;52.078;4.370;2024-01-30T05:10:07;14.55;;;8.90;;
45388;SDS011;31127;52.078;4.370;2024-01-30T05:15:03;18.25;;;9.00;;
45388;SDS011;31127;52.078;4.370;2024-01-30T05:20:01;12.07;;;8.82;;
45388;SDS011;31127;52.078;4.370;2024-01-30T05:24:57;18.67;;;8.90;;
45388;SDS011;31127;52.078;4.370;2024-01-30T05:29:52;15.85;;;8.45;;
45388;SDS011;31127;52.078;4.370;2024-01-30T05:34:48;15.48;;;8.80;;
45388;SDS011;31127;52.078;4.370;2024-01-30T05:39:45;14.00;;;8.23;;
45388;SDS011;31127;52.078;4.370;2024-01-30T05:44:41;18.23;;;9.37;;
45388;SDS011;31127;52.078;4.370;2024-01-30T05:49:36;15.73;;;9.37;;
45388;SDS011;31127;52.078;4.370;2024-01-30T05:54:32;17.05;;;9.43;;
45388;SDS011;31127;52.078;4.370;2024-01-30T05:59:27;20.17;;;10.23;;
45388;SDS011;31127;52.078;4.370;2024-01-30T06:04:23;16.80;;;8.25;;
45388;SDS011;31127;52.078;4.370;2024-01-30T06:09:19;18.05;;;9.43;;
45388;SDS011;31127;52.078;4.370;2024-01-30T06:14:14;16.80;;;8.85;;
45388;SDS011;31127;52.078;4.370;2024-01-30T06:19:10;24.30;;;9.00;;
45388;SDS011;31127;52.078;4.370;2024-01-30T06:24:05;11.82;;;8.20;;
45388;SDS011;31127;52.078;4.370;2024-01-30T06:29:03;14.80;;;8.40;;
45388;SDS011;31127;52.078;4.370;2024-01-30T06:33:59;14.13;;;9.50;;
45388;SDS011;31127;52.078;4.370;2024-01-30T06:38:54;13.77;;;8.30;;
45388;SDS011;31127;52.078;4.370;2024-01-30T06:43:52;16.63;;;8.75;;
45388;SDS011;31127;52.078;4.370;2024-01-30T06:48:47;20.60;;;9.25;;
45388;SDS011;31127;52.078;4.370;2024-01-30T06:53:42;21.30;;;9.93;;
45388;SDS011;31127;52.078;4.370;2024-01-30T06:58:38;19.33;;;10.18;;
45388;SDS011;31127;52.078;4.370;2024-01-30T07:03:34;19.67;;;10.13;;
45388;SDS011;31127;52.078;4.370;2024-01-30T07:08:41;18.98;;;8.82;;
45388;SDS011;31127;52.078;4.370;2024-01-30T07:13:36;20.52;;;9.00;;
45388;SDS011;31127;52.078;4.370;2024-01-30T07:18:32;16.77;;;9.32;;
45388;SDS011;31127;52.078;4.370;2024-01-30T07:23:27;19.70;;;9.25;;
45388;SDS011;31127;52.078;4.370;2024-01-30T07:28:24;17.30;;;9.27;;
45388;SDS011;31127;52.078;4.370;2024-01-30T07:33:40;16.98;;;8.40;;
45388;SDS011;31127;52.078;4.370;2024-01-30T07:38:35;18.60;;;9.75;;
45388;SDS011;31127;52.078;4.370;2024-01-30T07:43:31;13.38;;;7.80;;
45388;SDS011;31127;52.078;4.370;2024-01-30T07:48:27;15.48;;;7.47;;
45388;SDS011;31127;52.078;4.370;2024-01-30T07:53:22;19.60;;;9.60;;
45388;SDS011;31127;52.078;4.370;2024-01-30T07:58:18;16.33;;;8.95;;
45388;SDS011;31127;52.078;4.370;2024-01-30T08:03:18;24.38;;;9.93;;
45388;SDS011;31127;52.078;4.370;2024-01-30T08:08:15;16.17;;;9.25;;
45388;SDS011;31127;52.078;4.370;2024-01-30T08:13:10;19.90;;;9.50;;
45388;SDS011;31127;52.078;4.370;2024-01-30T08:18:26;19.45;;;10.23;;
45388;SDS011;31127;52.078;4.370;2024-01-30T08:23:22;16.88;;;10.30;;
45388;SDS011;31127;52.078;4.370;2024-01-30T08:28:18;17.27;;;9.73;;
45388;SDS011;31127;52.078;4.370;2024-01-30T08:33:33;18.63;;;10.20;;
45388;SDS011;31127;52.078;4.370;2024-01-30T08:38:49;18.08;;;10.98;;
45388;SDS011;31127;52.078;4.370;2024-01-30T08:43:45;18.88;;;11.02;;
45388;SDS011;31127;52.078;4.370;2024-01-30T08:48:40;17.70;;;11.10;;
45388;SDS011;31127;52.078;4.370;2024-01-30T08:53:36;24.10;;;11.38;;
45388;SDS011;31127;52.078;4.370;2024-01-30T08:58:32;19.30;;;10.48;;
45388;SDS011;31127;52.078;4.370;2024-01-30T09:03:27;19.77;;;10.88;;
45388;SDS011;31127;52.078;4.370;2024-01-30T09:08:23;18.92;;;9.50;;
45388;SDS011;31127;52.078;4.370;2024-01-30T09:13:19;25.90;;;11.27;;
45388;SDS011;31127;52.078;4.370;2024-01-30T09:18:34;30.02;;;11.07;;
45388;SDS011;31127;52.078;4.370;2024-01-30T09:23:30;21.40;;;7.38;;
45388;SDS011;31127;52.078;4.370;2024-01-30T09:28:28;12.00;;;4.72;;
45388;SDS011;31127;52.078;4.370;2024-01-30T09:33:24;18.05;;;4.97;;
45388;SDS011;31127;52.078;4.370;2024-01-30T09:38:22;14.60;;;2.97;;
45388;SDS011;31127;52.078;4.370;2024-01-30T09:43:18;7.53;;;2.75;;
45388;SDS011;31127;52.078;4.370;2024-01-30T09:48:17;15.80;;;3.63;;
45388;SDS011;31127;52.078;4.370;2024-01-30T09:53:13;10.05;;;2.22;;
45388;SDS011;31127;52.078;4.370;2024-01-30T09:58:09;8.52;;;2.03;;
45388;SDS011;31127;52.078;4.370;2024-01-30T10:03:05;5.85;;;1.27;;
45388;SDS011;31127;52.078;4.370;2024-01-30T10:08:00;6.35;;;1.13;;
45388;SDS011;31127;52.078;4.370;2024-01-30T10:12:56;7.53;;;1.30;;
45388;SDS011;31127;52.078;4.370;2024-01-30T10:17:51;10.18;;;1.92;;
45388;SDS011;31127;52.078;4.370;2024-01-30T10:22:49;10.30;;;1.80;;
45388;SDS011;31127;52.078;4.370;2024-01-30T10:27:45;10.30;;;2.22;;
45388;SDS011;31127;52.078;4.370;2024-01-30T10:33:00;8.93;;;1.60;;
45388;SDS011;31127;52.078;4.370;2024-01-30T10:37:56;6.45;;;1.38;;
45388;SDS011;31127;52.078;4.370;2024-01-30T10:42:52;6.55;;;1.73;;
45388;SDS011;31127;52.078;4.370;2024-01-30T10:47:50;9.75;;;2.08;;
45388;SDS011;31127;52.078;4.370;2024-01-30T10:52:48;15.60;;;2.40;;
45388;SDS011;31127;52.078;4.370;2024-01-30T10:57:44;18.25;;;3.55;;
45388;SDS011;31127;52.078;4.370;2024-01-30T11:02:40;14.35;;;2.15;;
45388;SDS011;31127;52.078;4.370;2024-01-30T11:07:55;10.55;;;2.13;;
45388;SDS011;31127;52.078;4.370;2024-01-30T11:13:13;12.68;;;2.10;;
45388;SDS011;31127;52.078;4.370;2024-01-30T11:18:08;11.60;;;1.95;;
45388;SDS011;31127;52.078;4.370;2024-01-30T11:23:05;11.48;;;1.60;;
45388;SDS011;31127;52.078;4.370;2024-01-30T11:28:04;15.20;;;2.65;;
45388;SDS011;31127;52.078;4.370;2024-01-30T11:33:29;5.95;;;1.38;;
45388;SDS011;31127;52.078;4.370;2024-01-30T11:38:49;13.88;;;2.47;;
45388;SDS011;31127;52.078;4.370;2024-01-30T11:43:53;10.98;;;2.05;;
45388;SDS011;31127;52.078;4.370;2024-01-30T11:48:49;8.20;;;2.30;;
45388;SDS011;31127;52.078;4.370;2024-01-30T11:53:44;17.15;;;3.05;;
45388;SDS011;31127;52.078;4.370;2024-01-30T11:58:42;22.05;;;3.10;;
45388;SDS011;31127;52.078;4.370;2024-01-30T12:03:37;11.32;;;3.03;;
45388;SDS011;31127;52.078;4.370;2024-01-30T12:08:33;10.10;;;2.70;;
45388;SDS011;31127;52.078;4.370;2024-01-30T12:13:28;9.65;;;2.88;;
45388;SDS011;31127;52.078;4.370;2024-01-30T12:18:24;17.27;;;2.65;;
45388;SDS011;31127;52.078;4.370;2024-01-30T12:23:20;12.60;;;3.03;;
45388;SDS011;31127;52.078;4.370;2024-01-30T12:28:23;19.48;;;2.70;;
45388;SDS011;31127;52.078;4.370;2024-01-30T12:33:19;19.08;;;2.90;;
45388;SDS011;31127;52.078;4.370;2024-01-30T12:38:16;22.08;;;3.53;;
45388;SDS011;31127;52.078;4.370;2024-01-30T12:43:11;10.20;;;2.90;;
45388;SDS011;31127;52.078;4.370;2024-01-30T12:48:07;16.00;;;3.78;;
45388;SDS011;31127;52.078;4.370;2024-01-30T12:53:02;15.10;;;3.58;;
45388;SDS011;31127;52.078;4.370;2024-01-30T12:57:58;15.95;;;3.97;;
45388;SDS011;31127;52.078;4.370;2024-01-30T13:02:53;10.30;;;3.10;;
45388;SDS011;31127;52.078;4.370;2024-01-30T13:07:50;8.50;;;2.83;;
45388;SDS011;31127;52.078;4.370;2024-01-30T13:12:46;9.50;;;3.50;;
45388;SDS011;31127;52.078;4.370;2024-01-30T13:18:01;9.98;;;3.88;;
45388;SDS011;31127;52.078;4.370;2024-01-30T13:22:57;12.25;;;3.53;;
45388;SDS011;31127;52.078;4.370;2024-01-30T13:27:53;11.93;;;3.80;;
45388;SDS011;31127;52.078;4.370;2024-01-30T13:32:48;13.13;;;3.53;;
45388;SDS011;31127;52.078;4.370;2024-01-30T13:37:44;10.13;;;4.68;;
45388;SDS011;31127;52.078;4.370;2024-01-30T13:42:39;12.25;;;3.85;;
45388;SDS011;31127;52.078;4.370;2024-01-30T13:47:35;11.93;;;4.30;;
45388;SDS011;31127;52.078;4.370;2024-01-30T13:52:31;9.60;;;3.33;;
45388;SDS011;31127;52.078;4.370;2024-01-30T13:57:26;7.95;;;2.75;;
45388;SDS011;31127;52.078;4.370;2024-01-30T14:02:22;125.80;;;13.38;;
45388;SDS011;31127;52.078;4.370;2024-01-30T14:07:18;12.77;;;3.30;;
45388;SDS011;31127;52.078;4.370;2024-01-30T14:12:14;9.88;;;2.80;;
45388;SDS011;31127;52.078;4.370;2024-01-30T14:17:29;12.60;;;3.85;;
45388;SDS011;31127;52.078;4.370;2024-01-30T14:22:25;217.65;;;19.42;;
45388;SDS011;31127;52.078;4.370;2024-01-30T14:27:20;10.65;;;4.03;;
45388;SDS011;31127;52.078;4.370;2024-01-30T14:32:16;15.57;;;4.93;;
45388;SDS011;31127;52.078;4.370;2024-01-30T14:37:12;11.02;;;4.90;;
45388;SDS011;31127;52.078;4.370;2024-01-30T14:42:08;10.80;;;4.70;;
45388;SDS011;31127;52.078;4.370;2024-01-30T14:47:04;11.88;;;4.95;;
45388;SDS011;31127;52.078;4.370;2024-01-30T14:51:59;14.48;;;5.63;;
45388;SDS011;31127;52.078;4.370;2024-01-30T14:56:56;18.33;;;6.68;;
45388;SDS011;31127;52.078;4.370;2024-01-30T15:01:52;19.60;;;6.25;;
45388;SDS011;31127;52.078;4.370;2024-01-30T15:06:47;11.52;;;4.93;;
45388;SDS011;31127;52.078;4.370;2024-01-30T15:11:44;17.73;;;6.13;;
45388;SDS011;31127;52.078;4.370;2024-01-30T15:16:39;24.23;;;6.20;;
45388;SDS011;31127;52.078;4.370;2024-01-30T15:21:35;16.40;;;6.90;;
45388;SDS011;31127;52.078;4.370;2024-01-30T15:26:31;16.98;;;6.53;;
45388;SDS011;31127;52.078;4.370;2024-01-30T15:31:26;15.85;;;6.25;;
45388;SDS011;31127;52.078;4.370;2024-01-30T15:36:21;13.80;;;5.68;;
45388;SDS011;31127;52.078;4.370;2024-01-30T15:41:17;13.20;;;6.82;;
45388;SDS011;31127;52.078;4.370;2024-01-30T15:46:13;15.48;;;5.57;;
45388;SDS011;31127;52.078;4.370;2024-01-30T15:51:09;17.80;;;6.28;;
45388;SDS011;31127;52.078;4.370;2024-01-30T15:56:05;21.88;;;5.90;;
45388;SDS011;31127;52.078;4.370;2024-01-30T16:01:00;13.15;;;3.50;;
45388;SDS011;31127;52.078;4.370;2024-01-30T16:05:59;9.52;;;2.47;;
45388;SDS011;31127;52.078;4.370;2024-01-30T16:10:54;21.00;;;3.80;;
45388;SDS011;31127;52.078;4.370;2024-01-30T16:15:49;17.58;;;3.65;;
45388;SDS011;31127;52.078;4.370;2024-01-30T16:20:45;21.15;;;2.90;;
45388;SDS011;31127;52.078;4.370;2024-01-30T16:25:41;20.25;;;3.15;;
45388;SDS011;31127;52.078;4.370;2024-01-30T16:30:36;21.63;;;4.00;;
45388;SDS011;31127;52.078;4.370;2024-01-30T16:35:32;17.70;;;2.88;;
45388;SDS011;31127;52.078;4.370;2024-01-30T16:40:27;24.25;;;3.88;;
45388;SDS011;31127;52.078;4.370;2024-01-30T16:45:23;16.17;;;4.03;;
45388;SDS011;31127;52.078;4.370;2024-01-30T16:50:39;22.83;;;3.10;;
45388;SDS011;31127;52.078;4.370;2024-01-30T16:55:34;24.73;;;3.95;;
45388;SDS011;31127;52.078;4.370;2024-01-30T17:00:50;25.30;;;4.10;;
45388;SDS011;31127;52.078;4.370;2024-01-30T17:05:46;22.40;;;4.55;;
45388;SDS011;31127;52.078;4.370;2024-01-30T17:10:45;23.73;;;4.63;;
45388;SDS011;31127;52.078;4.370;2024-01-30T17:15:40;15.93;;;4.47;;
45388;SDS011;31127;52.078;4.370;2024-01-30T17:20:59;21.33;;;5.75;;
45388;SDS011;31127;52.078;4.370;2024-01-30T17:25:54;25.85;;;5.03;;
45388;SDS011;31127;52.078;4.370;2024-01-30T17:30:50;27.65;;;6.20;;
45388;SDS011;31127;52.078;4.370;2024-01-30T17:35:48;15.05;;;2.85;;
45388;SDS011;31127;52.078;4.370;2024-01-30T17:40:44;22.85;;;4.93;;
45388;SDS011;31127;52.078;4.370;2024-01-30T17:45:42;19.45;;;4.45;;
45388;SDS011;31127;52.078;4.370;2024-01-30T17:50:38;12.15;;;3.58;;
45388;SDS011;31127;52.078;4.370;2024-01-30T17:55:33;13.70;;;2.28;;
45388;SDS011;31127;52.078;4.370;2024-01-30T18:00:29;16.50;;;2.42;;
45388;SDS011;31127;52.078;4.370;2024-01-30T18:05:30;15.93;;;2.70;;
45388;SDS011;31127;52.078;4.370;2024-01-30T18:10:25;16.85;;;2.58;;
45388;SDS011;31127;52.078;4.370;2024-01-30T18:15:21;13.32;;;2.75;;
45388;SDS011;31127;52.078;4.370;2024-01-30T18:20:17;20.83;;;2.63;;
45388;SDS011;31127;52.078;4.370;2024-01-30T18:25:12;15.20;;;3.33;;
45388;SDS011;31127;52.078;4.370;2024-01-30T18:30:20;18.95;;;4.07;;
45388;SDS011;31127;52.078;4.370;2024-01-30T18:35:16;19.60;;;3.10;;
45388;SDS011;31127;52.078;4.370;2024-01-30T18:40:12;22.95;;;3.95;;
45388;SDS011;31127;52.078;4.370;2024-01-30T18:45:08;13.70;;;3.25;;
45388;SDS011;31127;52.078;4.370;2024-01-30T18:50:04;19.25;;;2.85;;
45388;SDS011;31127;52.078;4.370;2024-01-30T18:55:00;24.42;;;3.20;;
45388;SDS011;31127;52.078;4.370;2024-01-30T18:59:56;21.25;;;3.33;;
45388;SDS011;31127;52.078;4.370;2024-01-30T19:04:54;24.88;;;3.55;;
45388;SDS011;31127;52.078;4.370;2024-01-30T19:09:50;21.45;;;3.10;;
45388;SDS011;31127;52.078;4.370;2024-01-30T19:14:47;12.70;;;4.05;;
45388;SDS011;31127;52.078;4.370;2024-01-30T19:19:43;17.55;;;3.28;;
45388;SDS011;31127;52.078;4.370;2024-01-30T19:24:39;17.77;;;2.45;;
45388;SDS011;31127;52.078;4.370;2024-01-30T19:29:34;12.73;;;2.30;;
45388;SDS011;31127;52.078;4.370;2024-01-30T19:34:30;10.50;;;2.03;;
45388;SDS011;31127;52.078;4.370;2024-01-30T19:39:25;12.43;;;1.63;;
45388;SDS011;31127;52.078;4.370;2024-01-30T19:44:22;7.05;;;1.80;;
45388;SDS011;31127;52.078;4.370;2024-01-30T19:49:18;15.45;;;2.17;;
45388;SDS011;31127;52.078;4.370;2024-01-30T19:54:14;8.73;;;1.60;;
45388;SDS011;31127;52.078;4.370;2024-01-30T19:59:12;16.05;;;2.22;;
45388;SDS011;31127;52.078;4.370;2024-01-30T20:04:08;10.43;;;1.42;;
45388;SDS011;31127;52.078;4.370;2024-01-30T20:09:03;9.45;;;2.22;;
45388;SDS011;31127;52.078;4.370;2024-01-30T20:13:59;11.50;;;2.33;;
45388;SDS011;31127;52.078;4.370;2024-01-30T20:18:55;10.10;;;1.40;;
45388;SDS011;31127;52.078;4.370;2024-01-30T20:23:50;12.45;;;1.33;;
45388;SDS011;31127;52.078;4.370;2024-01-30T20:28:46;8.00;;;1.33;;
45388;SDS011;31127;52.078;4.370;2024-01-30T20:33:43;3.85;;;0.70;;
45388;SDS011;31127;52.078;4.370;2024-01-30T20:38:58;10.07;;;1.00;;
45388;SDS011;31127;52.078;4.370;2024-01-30T20:43:54;6.60;;;0.80;;
45388;SDS011;31127;52.078;4.370;2024-01-30T20:48:49;4.07;;;0.70;;
45388;SDS011;31127;52.078;4.370;2024-01-30T20:53:45;6.68;;;1.00;;
45388;SDS011;31127;52.078;4.370;2024-01-30T20:58:40;8.20;;;2.90;;
45388;SDS011;31127;52.078;4.370;2024-01-30T21:03:36;8.53;;;1.67;;
45388;SDS011;31127;52.078;4.370;2024-01-30T21:08:34;3.78;;;1.23;;
45388;SDS011;31127;52.078;4.370;2024-01-30T21:13:31;10.27;;;2.20;;
45388;SDS011;31127;52.078;4.370;2024-01-30T21:18:26;12.32;;;2.13;;
45388;SDS011;31127;52.078;4.370;2024-01-30T21:23:22;9.93;;;1.60;;
45388;SDS011;31127;52.078;4.370;2024-01-30T21:28:20;10.95;;;2.00;;
45388;SDS011;31127;52.078;4.370;2024-01-30T21:33:36;7.88;;;1.42;;
45388;SDS011;31127;52.078;4.370;2024-01-30T21:38:31;5.75;;;1.33;;
45388;SDS011;31127;52.078;4.370;2024-01-30T21:43:27;6.68;;;1.92;;
45388;SDS011;31127;52.078;4.370;2024-01-30T21:48:23;8.43;;;1.25;;
45388;SDS011;31127;52.078;4.370;2024-01-30T21:53:18;7.30;;;1.30;;
45388;SDS011;31127;52.078;4.370;2024-01-30T21:58:17;4.63;;;0.85;;
45388;SDS011;31127;52.078;4.370;2024-01-30T22:03:13;6.95;;;1.20;;
45388;SDS011;31127;52.078;4.370;2024-01-30T22:08:11;4.25;;;1.10;;
45388;SDS011;31127;52.078;4.370;2024-01-30T22:13:07;11.13;;;2.03;;
45388;SDS011;31127;52.078;4.370;2024-01-30T22:18:02;5.72;;;1.75;;
45388;SDS011;31127;52.078;4.370;2024-01-30T22:22:58;6.20;;;1.55;;
45388;SDS011;31127;52.078;4.370;2024-01-30T22:27:53;6.10;;;1.20;;
45388;SDS011;31127;52.078;4.370;2024-01-30T22:33:09;7.78;;;2.15;;
45388;SDS011;31127;52.078;4.370;2024-01-30T22:38:06;5.70;;;1.30;;
45388;SDS011;31127;52.078;4.370;2024-01-30T22:43:03;7.03;;;1.90;;
45388;SDS011;31127;52.078;4.370;2024-01-30T22:47:58;4.78;;;1.33;;
45388;SDS011;31127;52.078;4.370;2024-01-30T22:52:54;6.38;;;1.38;;
45388;SDS011;31127;52.078;4.370;2024-01-30T22:57:50;7.97;;;1.60;;
45388;SDS011;31127;52.078;4.370;2024-01-30T23:03:05;4.97;;;1.40;;
45388;SDS011;31127;52.078;4.370;2024-01-30T23:08:20;10.68;;;1.38;;
45388;SDS011;31127;52.078;4.370;2024-01-30T23:13:17;10.07;;;2.20;;
45388;SDS011;31127;52.078;4.370;2024-01-30T23:18:13;8.35;;;1.40;;
45388;SDS011;31127;52.078;4.370;2024-01-30T23:23:22;12.10;;;1.33;;
45388;SDS011;31127;52.078;4.370;2024-01-30T23:28:17;5.13;;;1.05;;
45388;SDS011;31127;52.078;4.370;2024-01-30T23:33:32;7.38;;;1.63;;
45388;SDS011;31127;52.078;4.370;2024-01-30T23:38:28;3.25;;;1.10;;
45388;SDS011;31127;52.078;4.370;2024-01-30T23:43:24;4.10;;;1.10;;
45388;SDS011;31127;52.078;4.370;2024-01-30T23:48:19;4.13;;;1.17;;
45388;SDS011;31127;52.078;4.370;2024-01-30T23:53:15;5.25;;;1.02;;
45388;SDS011;31127;52.078;4.370;2024-01-30T23:58:11;3.78;;;0.95;;
